Aérodrome :
LOGIN :

S'inscrire | Disclaimer

   EN    FR    IT 

 










Légende :    VFR   VFR Marginal   IFR   IFR Intensif   IFR Très Intensif
Visi : 
Plafond : 
>= 8 km
>= 3000ft
5 à 8 km
1000 à 3000 ft
1500m à 5 km
500 à 1000 ft
800 à 1500m
200 à 500 ft
< 800m
< 200 ft
Symboles :   Orages  Brouillard  Fortes neiges  Fortes précipitations  Vent > 20 kt
SIGMETs :   Divers  Orages  Givrage  Turbulence  Onde Orograph.  Cendres Volcan.







- Altitude de l'aérodrome : 978 ft
- Code IATA : LNZ


LOWL - Linz

DERNIER METAR :
  • 211350Z 16004KT 110V190 9999 FEW014 BKN047 16/13 Q1028 NOSIG

METARs EXPIRÉS :
  • 211320Z 18005KT 140V210 9999 FEW012 BKN047 16/13 Q1029 NOSIG
  • 211250Z 16003KT 120V200 9999 FEW012 BKN047 16/14 Q1029 NOSIG
  • 211220Z 16004KT 120V200 9999 FEW042 SCT044 BKN050 16/13 Q1029 NOSIG
  • 211150Z 18003KT 110V210 9999 -RA FEW011 SCT034 BKN045 16/13 Q1029 NOSIG
  • 211120Z 15003KT 120V200 9999 FEW011 SCT034 BKN045 16/14 Q1029 NOSIG

TAF TAF LOWL
Valide du 21 à 12h jusqu'au 22 à 12h UTC


211115Z 2112/2212 07004KT 9999 SCT020 BKN060 TX22/2212Z TN14/2204Z
BECMG 2207/2209 10008KT
Pas de NOTAMs connus pour ce terrain.



MET'MAP, la Météo Aéronautique d'un coup d'oeil ! - Copyright ORBIFLY Décembre 2007 - Disclaimer

ORBIFLY MET'MAP TEAM :

Programmation & Développement : Alexandra Zaïnal
Conception & Développement : Baudouin d'Aumeries
Co-Programmation & Développement : Marc-Olivier Méhu
Soutien technique & logistique : Manuel Goepfert

Contact : metmap@orbifly.com




SOURCES & CREDITS :

   NOAA